sensor_id;sensor_type;location;lat;lon;timestamp;P1;durP1;ratioP1;P2;durP2;ratioP2
11827;SDS011;5971;49.646;8.568;2022-07-21T00:00:14;12.15;;;6.22;;
11827;SDS011;5971;49.646;8.568;2022-07-21T00:03:15;11.05;;;6.65;;
11827;SDS011;5971;49.646;8.568;2022-07-21T00:06:17;12.73;;;7.10;;
11827;SDS011;5971;49.646;8.568;2022-07-21T00:09:18;13.15;;;7.28;;
11827;SDS011;5971;49.646;8.568;2022-07-21T00:12:20;10.40;;;6.72;;
11827;SDS011;5971;49.646;8.568;2022-07-21T00:15:22;11.40;;;7.28;;
11827;SDS011;5971;49.646;8.568;2022-07-21T00:18:23;13.38;;;6.65;;
11827;SDS011;5971;49.646;8.568;2022-07-21T00:21:26;11.48;;;6.88;;
11827;SDS011;5971;49.646;8.568;2022-07-21T00:24:28;12.73;;;7.20;;
11827;SDS011;5971;49.646;8.568;2022-07-21T00:27:29;13.45;;;6.55;;
11827;SDS011;5971;49.646;8.568;2022-07-21T00:30:32;10.57;;;6.47;;
11827;SDS011;5971;49.646;8.568;2022-07-21T00:33:33;10.15;;;5.68;;
11827;SDS011;5971;49.646;8.568;2022-07-21T00:36:34;10.75;;;6.15;;
11827;SDS011;5971;49.646;8.568;2022-07-21T00:39:36;11.60;;;5.97;;
11827;SDS011;5971;49.646;8.568;2022-07-21T00:42:37;11.20;;;6.35;;
11827;SDS011;5971;49.646;8.568;2022-07-21T00:45:39;11.50;;;6.40;;
11827;SDS011;5971;49.646;8.568;2022-07-21T00:48:40;10.90;;;6.25;;
11827;SDS011;5971;49.646;8.568;2022-07-21T00:51:41;10.20;;;6.20;;
11827;SDS011;5971;49.646;8.568;2022-07-21T00:54:43;10.82;;;6.43;;
11827;SDS011;5971;49.646;8.568;2022-07-21T00:57:44;9.20;;;5.50;;
11827;SDS011;5971;49.646;8.568;2022-07-21T01:00:46;9.30;;;5.35;;
11827;SDS011;5971;49.646;8.568;2022-07-21T01:03:48;10.07;;;6.07;;
11827;SDS011;5971;49.646;8.568;2022-07-21T01:06:49;9.25;;;6.18;;
11827;SDS011;5971;49.646;8.568;2022-07-21T01:09:51;12.30;;;6.20;;
11827;SDS011;5971;49.646;8.568;2022-07-21T01:12:52;9.88;;;6.05;;
11827;SDS011;5971;49.646;8.568;2022-07-21T01:15:53;10.13;;;5.78;;
11827;SDS011;5971;49.646;8.568;2022-07-21T01:18:55;11.38;;;6.85;;
11827;SDS011;5971;49.646;8.568;2022-07-21T01:21:57;11.10;;;5.93;;
11827;SDS011;5971;49.646;8.568;2022-07-21T01:24:58;10.13;;;6.57;;
11827;SDS011;5971;49.646;8.568;2022-07-21T01:28:00;10.43;;;6.97;;
11827;SDS011;5971;49.646;8.568;2022-07-21T01:31:01;11.70;;;7.03;;
11827;SDS011;5971;49.646;8.568;2022-07-21T01:34:03;13.65;;;6.53;;
11827;SDS011;5971;49.646;8.568;2022-07-21T01:37:04;11.43;;;6.95;;
11827;SDS011;5971;49.646;8.568;2022-07-21T01:40:06;10.85;;;6.72;;
11827;SDS011;5971;49.646;8.568;2022-07-21T01:43:26;11.60;;;6.53;;
11827;SDS011;5971;49.646;8.568;2022-07-21T01:46:28;11.07;;;7.13;;
11827;SDS011;5971;49.646;8.568;2022-07-21T01:49:29;10.70;;;6.45;;
11827;SDS011;5971;49.646;8.568;2022-07-21T01:52:31;11.27;;;7.00;;
11827;SDS011;5971;49.646;8.568;2022-07-21T01:55:32;10.10;;;6.95;;
11827;SDS011;5971;49.646;8.568;2022-07-21T01:58:34;10.48;;;7.32;;
11827;SDS011;5971;49.646;8.568;2022-07-21T02:01:35;11.88;;;6.97;;
11827;SDS011;5971;49.646;8.568;2022-07-21T02:04:37;12.65;;;7.35;;
11827;SDS011;5971;49.646;8.568;2022-07-21T02:07:38;10.93;;;6.75;;
11827;SDS011;5971;49.646;8.568;2022-07-21T02:10:40;12.38;;;7.28;;
11827;SDS011;5971;49.646;8.568;2022-07-21T02:13:41;13.23;;;7.05;;
11827;SDS011;5971;49.646;8.568;2022-07-21T02:16:43;10.95;;;6.40;;
11827;SDS011;5971;49.646;8.568;2022-07-21T02:19:44;10.30;;;6.25;;
11827;SDS011;5971;49.646;8.568;2022-07-21T02:22:46;12.15;;;7.45;;
11827;SDS011;5971;49.646;8.568;2022-07-21T02:25:48;11.35;;;7.18;;
11827;SDS011;5971;49.646;8.568;2022-07-21T02:28:50;11.30;;;6.88;;
11827;SDS011;5971;49.646;8.568;2022-07-21T02:31:51;12.48;;;7.20;;
11827;SDS011;5971;49.646;8.568;2022-07-21T02:34:53;12.60;;;7.32;;
11827;SDS011;5971;49.646;8.568;2022-07-21T02:37:54;12.18;;;7.00;;
11827;SDS011;5971;49.646;8.568;2022-07-21T02:40:55;13.50;;;7.18;;
11827;SDS011;5971;49.646;8.568;2022-07-21T02:43:58;11.35;;;7.18;;
11827;SDS011;5971;49.646;8.568;2022-07-21T02:46:59;12.82;;;7.88;;
11827;SDS011;5971;49.646;8.568;2022-07-21T02:50:00;13.73;;;6.70;;
11827;SDS011;5971;49.646;8.568;2022-07-21T02:53:06;12.50;;;7.40;;
11827;SDS011;5971;49.646;8.568;2022-07-21T02:56:08;13.57;;;8.52;;
11827;SDS011;5971;49.646;8.568;2022-07-21T02:59:09;12.35;;;7.15;;
11827;SDS011;5971;49.646;8.568;2022-07-21T03:02:10;11.88;;;7.50;;
11827;SDS011;5971;49.646;8.568;2022-07-21T03:05:12;11.85;;;6.93;;
11827;SDS011;5971;49.646;8.568;2022-07-21T03:08:14;13.27;;;7.75;;
11827;SDS011;5971;49.646;8.568;2022-07-21T03:11:15;11.75;;;6.95;;
11827;SDS011;5971;49.646;8.568;2022-07-21T03:14:16;14.35;;;7.57;;
11827;SDS011;5971;49.646;8.568;2022-07-21T03:17:18;13.15;;;7.78;;
11827;SDS011;5971;49.646;8.568;2022-07-21T03:20:19;12.60;;;7.43;;
11827;SDS011;5971;49.646;8.568;2022-07-21T03:23:22;12.10;;;7.78;;
11827;SDS011;5971;49.646;8.568;2022-07-21T03:26:24;13.40;;;7.47;;
11827;SDS011;5971;49.646;8.568;2022-07-21T03:29:25;11.68;;;7.53;;
11827;SDS011;5971;49.646;8.568;2022-07-21T03:32:26;12.15;;;7.38;;
11827;SDS011;5971;49.646;8.568;2022-07-21T03:35:28;11.40;;;7.20;;
11827;SDS011;5971;49.646;8.568;2022-07-21T03:38:29;11.00;;;7.00;;
11827;SDS011;5971;49.646;8.568;2022-07-21T03:41:30;14.43;;;8.13;;
11827;SDS011;5971;49.646;8.568;2022-07-21T03:44:32;12.85;;;7.93;;
11827;SDS011;5971;49.646;8.568;2022-07-21T03:47:33;13.45;;;7.05;;
11827;SDS011;5971;49.646;8.568;2022-07-21T03:50:38;12.15;;;7.25;;
11827;SDS011;5971;49.646;8.568;2022-07-21T03:53:40;14.02;;;7.88;;
11827;SDS011;5971;49.646;8.568;2022-07-21T03:56:41;14.48;;;7.60;;
11827;SDS011;5971;49.646;8.568;2022-07-21T03:59:43;13.13;;;7.95;;
11827;SDS011;5971;49.646;8.568;2022-07-21T04:02:44;13.80;;;7.97;;
11827;SDS011;5971;49.646;8.568;2022-07-21T04:05:46;11.32;;;7.30;;
11827;SDS011;5971;49.646;8.568;2022-07-21T04:08:47;14.00;;;8.07;;
11827;SDS011;5971;49.646;8.568;2022-07-21T04:11:49;14.02;;;8.25;;
11827;SDS011;5971;49.646;8.568;2022-07-21T04:14:50;14.98;;;8.23;;
11827;SDS011;5971;49.646;8.568;2022-07-21T04:17:52;13.48;;;7.57;;
11827;SDS011;5971;49.646;8.568;2022-07-21T04:20:53;14.38;;;9.23;;
11827;SDS011;5971;49.646;8.568;2022-07-21T04:23:54;14.82;;;8.15;;
11827;SDS011;5971;49.646;8.568;2022-07-21T04:26:56;12.27;;;7.75;;
11827;SDS011;5971;49.646;8.568;2022-07-21T04:30:04;13.82;;;8.27;;
11827;SDS011;5971;49.646;8.568;2022-07-21T04:33:05;13.30;;;8.18;;
11827;SDS011;5971;49.646;8.568;2022-07-21T04:36:07;15.23;;;8.85;;
11827;SDS011;5971;49.646;8.568;2022-07-21T04:39:09;13.55;;;7.82;;
11827;SDS011;5971;49.646;8.568;2022-07-21T04:42:10;12.70;;;7.55;;
11827;SDS011;5971;49.646;8.568;2022-07-21T04:45:12;13.20;;;7.38;;
11827;SDS011;5971;49.646;8.568;2022-07-21T04:48:15;12.63;;;7.18;;
11827;SDS011;5971;49.646;8.568;2022-07-21T04:51:16;12.68;;;7.10;;
11827;SDS011;5971;49.646;8.568;2022-07-21T04:54:17;11.48;;;7.22;;
11827;SDS011;5971;49.646;8.568;2022-07-21T04:57:19;12.60;;;6.55;;
11827;SDS011;5971;49.646;8.568;2022-07-21T05:00:21;10.13;;;6.47;;
11827;SDS011;5971;49.646;8.568;2022-07-21T05:03:23;9.30;;;6.18;;
11827;SDS011;5971;49.646;8.568;2022-07-21T05:06:24;9.27;;;5.90;;
11827;SDS011;5971;49.646;8.568;2022-07-21T05:09:27;9.80;;;6.00;;
11827;SDS011;5971;49.646;8.568;2022-07-21T05:12:28;10.55;;;6.80;;
11827;SDS011;5971;49.646;8.568;2022-07-21T05:15:30;9.60;;;5.90;;
11827;SDS011;5971;49.646;8.568;2022-07-21T05:18:32;10.32;;;5.80;;
11827;SDS011;5971;49.646;8.568;2022-07-21T05:21:33;8.63;;;5.20;;
11827;SDS011;5971;49.646;8.568;2022-07-21T05:24:34;9.20;;;5.53;;
11827;SDS011;5971;49.646;8.568;2022-07-21T05:27:36;11.35;;;5.78;;
11827;SDS011;5971;49.646;8.568;2022-07-21T05:30:37;8.00;;;5.57;;
11827;SDS011;5971;49.646;8.568;2022-07-21T05:33:39;9.40;;;5.60;;
11827;SDS011;5971;49.646;8.568;2022-07-21T05:36:40;11.82;;;6.00;;
11827;SDS011;5971;49.646;8.568;2022-07-21T05:39:41;10.70;;;6.13;;
11827;SDS011;5971;49.646;8.568;2022-07-21T05:42:43;9.38;;;5.47;;
11827;SDS011;5971;49.646;8.568;2022-07-21T05:45:44;8.02;;;5.32;;
11827;SDS011;5971;49.646;8.568;2022-07-21T05:48:46;10.10;;;5.10;;
11827;SDS011;5971;49.646;8.568;2022-07-21T05:51:47;8.38;;;5.22;;
11827;SDS011;5971;49.646;8.568;2022-07-21T05:54:48;12.82;;;6.05;;
11827;SDS011;5971;49.646;8.568;2022-07-21T05:57:50;8.38;;;5.45;;
11827;SDS011;5971;49.646;8.568;2022-07-21T06:00:51;9.30;;;5.50;;
11827;SDS011;5971;49.646;8.568;2022-07-21T06:04:25;10.38;;;5.15;;
11827;SDS011;5971;49.646;8.568;2022-07-21T06:07:27;9.48;;;5.72;;
11827;SDS011;5971;49.646;8.568;2022-07-21T06:10:28;8.35;;;5.30;;
11827;SDS011;5971;49.646;8.568;2022-07-21T06:13:30;9.18;;;5.53;;
11827;SDS011;5971;49.646;8.568;2022-07-21T06:16:31;8.60;;;5.43;;
11827;SDS011;5971;49.646;8.568;2022-07-21T06:19:33;9.18;;;5.82;;
11827;SDS011;5971;49.646;8.568;2022-07-21T06:22:35;8.80;;;5.22;;
11827;SDS011;5971;49.646;8.568;2022-07-21T06:25:37;9.73;;;5.40;;
11827;SDS011;5971;49.646;8.568;2022-07-21T06:28:38;8.57;;;5.50;;
11827;SDS011;5971;49.646;8.568;2022-07-21T06:31:40;9.07;;;5.28;;
11827;SDS011;5971;49.646;8.568;2022-07-21T06:34:41;9.60;;;5.57;;
11827;SDS011;5971;49.646;8.568;2022-07-21T06:37:46;7.88;;;5.10;;
11827;SDS011;5971;49.646;8.568;2022-07-21T06:40:47;7.80;;;4.85;;
11827;SDS011;5971;49.646;8.568;2022-07-21T06:43:49;7.10;;;4.75;;
11827;SDS011;5971;49.646;8.568;2022-07-21T06:46:51;6.43;;;3.95;;
11827;SDS011;5971;49.646;8.568;2022-07-21T06:49:52;7.53;;;3.97;;
11827;SDS011;5971;49.646;8.568;2022-07-21T06:52:54;6.78;;;4.13;;
11827;SDS011;5971;49.646;8.568;2022-07-21T06:55:55;6.05;;;3.83;;
11827;SDS011;5971;49.646;8.568;2022-07-21T06:59:03;6.38;;;4.13;;
11827;SDS011;5971;49.646;8.568;2022-07-21T07:02:05;9.60;;;4.85;;
11827;SDS011;5971;49.646;8.568;2022-07-21T07:05:06;6.72;;;4.65;;
11827;SDS011;5971;49.646;8.568;2022-07-21T07:08:09;6.50;;;4.10;;
11827;SDS011;5971;49.646;8.568;2022-07-21T07:11:12;6.65;;;4.35;;
11827;SDS011;5971;49.646;8.568;2022-07-21T07:14:14;7.07;;;4.30;;
11827;SDS011;5971;49.646;8.568;2022-07-21T07:17:19;6.35;;;4.10;;
11827;SDS011;5971;49.646;8.568;2022-07-21T07:20:23;5.82;;;3.80;;
11827;SDS011;5971;49.646;8.568;2022-07-21T07:23:24;5.78;;;4.18;;
11827;SDS011;5971;49.646;8.568;2022-07-21T07:26:32;6.22;;;4.38;;
11827;SDS011;5971;49.646;8.568;2022-07-21T07:29:34;5.82;;;4.13;;
11827;SDS011;5971;49.646;8.568;2022-07-21T07:32:35;7.03;;;4.28;;
11827;SDS011;5971;49.646;8.568;2022-07-21T07:35:37;6.45;;;4.10;;
11827;SDS011;5971;49.646;8.568;2022-07-21T07:38:39;5.57;;;3.92;;
11827;SDS011;5971;49.646;8.568;2022-07-21T07:41:40;5.90;;;3.97;;
11827;SDS011;5971;49.646;8.568;2022-07-21T07:44:42;6.03;;;4.03;;
11827;SDS011;5971;49.646;8.568;2022-07-21T07:47:44;7.30;;;3.70;;
11827;SDS011;5971;49.646;8.568;2022-07-21T07:50:45;6.40;;;3.90;;
11827;SDS011;5971;49.646;8.568;2022-07-21T07:53:46;5.47;;;3.92;;
11827;SDS011;5971;49.646;8.568;2022-07-21T07:56:48;5.18;;;3.50;;
11827;SDS011;5971;49.646;8.568;2022-07-21T07:59:54;5.70;;;3.80;;
11827;SDS011;5971;49.646;8.568;2022-07-21T08:02:58;5.03;;;3.28;;
11827;SDS011;5971;49.646;8.568;2022-07-21T08:05:59;5.60;;;3.50;;
11827;SDS011;5971;49.646;8.568;2022-07-21T08:09:04;6.03;;;3.63;;
11827;SDS011;5971;49.646;8.568;2022-07-21T08:12:05;6.32;;;3.85;;
11827;SDS011;5971;49.646;8.568;2022-07-21T08:15:07;5.60;;;3.70;;
11827;SDS011;5971;49.646;8.568;2022-07-21T08:18:09;6.00;;;3.85;;
11827;SDS011;5971;49.646;8.568;2022-07-21T08:21:10;8.70;;;4.35;;
11827;SDS011;5971;49.646;8.568;2022-07-21T08:24:11;6.32;;;4.53;;
11827;SDS011;5971;49.646;8.568;2022-07-21T08:27:13;7.03;;;4.80;;
11827;SDS011;5971;49.646;8.568;2022-07-21T08:30:14;6.05;;;3.83;;
11827;SDS011;5971;49.646;8.568;2022-07-21T08:33:16;6.75;;;4.80;;
11827;SDS011;5971;49.646;8.568;2022-07-21T08:36:17;5.82;;;4.20;;
11827;SDS011;5971;49.646;8.568;2022-07-21T08:39:19;6.35;;;4.32;;
11827;SDS011;5971;49.646;8.568;2022-07-21T08:42:20;5.97;;;4.00;;
11827;SDS011;5971;49.646;8.568;2022-07-21T08:45:21;6.45;;;3.83;;
11827;SDS011;5971;49.646;8.568;2022-07-21T08:48:26;5.18;;;3.72;;
11827;SDS011;5971;49.646;8.568;2022-07-21T08:51:27;5.90;;;3.75;;
11827;SDS011;5971;49.646;8.568;2022-07-21T08:54:32;6.25;;;4.45;;
11827;SDS011;5971;49.646;8.568;2022-07-21T08:57:34;6.75;;;4.38;;
11827;SDS011;5971;49.646;8.568;2022-07-21T09:00:36;6.90;;;5.07;;
11827;SDS011;5971;49.646;8.568;2022-07-21T09:03:37;7.28;;;4.63;;
11827;SDS011;5971;49.646;8.568;2022-07-21T09:06:48;7.45;;;4.45;;
11827;SDS011;5971;49.646;8.568;2022-07-21T09:09:57;7.00;;;4.53;;
11827;SDS011;5971;49.646;8.568;2022-07-21T09:13:03;7.38;;;4.28;;
11827;SDS011;5971;49.646;8.568;2022-07-21T09:16:05;8.15;;;4.93;;
11827;SDS011;5971;49.646;8.568;2022-07-21T09:19:07;10.00;;;5.18;;
11827;SDS011;5971;49.646;8.568;2022-07-21T09:22:12;10.77;;;6.03;;
11827;SDS011;5971;49.646;8.568;2022-07-21T09:25:14;8.55;;;5.45;;
11827;SDS011;5971;49.646;8.568;2022-07-21T09:28:33;8.43;;;5.00;;
11827;SDS011;5971;49.646;8.568;2022-07-21T09:31:34;7.85;;;4.93;;
11827;SDS011;5971;49.646;8.568;2022-07-21T09:34:35;7.18;;;4.70;;
11827;SDS011;5971;49.646;8.568;2022-07-21T09:37:37;7.53;;;4.55;;
11827;SDS011;5971;49.646;8.568;2022-07-21T09:40:45;6.78;;;4.10;;
11827;SDS011;5971;49.646;8.568;2022-07-21T09:43:48;6.63;;;4.32;;
11827;SDS011;5971;49.646;8.568;2022-07-21T09:46:49;6.22;;;4.25;;
11827;SDS011;5971;49.646;8.568;2022-07-21T09:50:10;7.22;;;4.65;;
11827;SDS011;5971;49.646;8.568;2022-07-21T09:53:26;7.22;;;4.45;;
11827;SDS011;5971;49.646;8.568;2022-07-21T09:56:31;6.07;;;4.60;;
11827;SDS011;5971;49.646;8.568;2022-07-21T09:59:34;6.90;;;4.50;;
11827;SDS011;5971;49.646;8.568;2022-07-21T10:02:55;6.47;;;4.22;;
11827;SDS011;5971;49.646;8.568;2022-07-21T10:05:57;6.90;;;3.60;;
11827;SDS011;5971;49.646;8.568;2022-07-21T10:08:59;5.53;;;3.80;;
11827;SDS011;5971;49.646;8.568;2022-07-21T10:12:01;5.53;;;3.45;;
11827;SDS011;5971;49.646;8.568;2022-07-21T10:15:03;5.85;;;3.75;;
11827;SDS011;5971;49.646;8.568;2022-07-21T10:18:04;4.47;;;3.35;;
11827;SDS011;5971;49.646;8.568;2022-07-21T10:21:21;4.30;;;3.40;;
11827;SDS011;5971;49.646;8.568;2022-07-21T10:24:25;4.50;;;3.33;;
11827;SDS011;5971;49.646;8.568;2022-07-21T10:27:28;4.47;;;3.20;;
11827;SDS011;5971;49.646;8.568;2022-07-21T10:30:50;6.32;;;3.63;;
11827;SDS011;5971;49.646;8.568;2022-07-21T10:33:52;6.45;;;3.40;;
11827;SDS011;5971;49.646;8.568;2022-07-21T10:39:56;4.80;;;3.60;;
11827;SDS011;5971;49.646;8.568;2022-07-21T10:46:31;5.07;;;3.35;;
11827;SDS011;5971;49.646;8.568;2022-07-21T10:49:40;4.60;;;3.08;;
11827;SDS011;5971;49.646;8.568;2022-07-21T10:55:47;4.82;;;2.97;;
11827;SDS011;5971;49.646;8.568;2022-07-21T10:58:48;4.30;;;3.25;;
11827;SDS011;5971;49.646;8.568;2022-07-21T11:01:50;4.93;;;3.25;;
11827;SDS011;5971;49.646;8.568;2022-07-21T11:05:04;3.72;;;3.08;;
11827;SDS011;5971;49.646;8.568;2022-07-21T11:08:13;4.90;;;3.17;;
11827;SDS011;5971;49.646;8.568;2022-07-21T11:14:17;4.93;;;3.35;;
11827;SDS011;5971;49.646;8.568;2022-07-21T11:17:29;4.57;;;3.40;;
11827;SDS011;5971;49.646;8.568;2022-07-21T11:20:31;4.47;;;3.17;;
11827;SDS011;5971;49.646;8.568;2022-07-21T11:23:45;4.63;;;3.63;;
11827;SDS011;5971;49.646;8.568;2022-07-21T11:26:57;4.72;;;3.67;;
11827;SDS011;5971;49.646;8.568;2022-07-21T11:29:59;5.05;;;3.88;;
11827;SDS011;5971;49.646;8.568;2022-07-21T11:33:01;4.70;;;3.25;;
11827;SDS011;5971;49.646;8.568;2022-07-21T11:36:02;5.10;;;3.70;;
11827;SDS011;5971;49.646;8.568;2022-07-21T11:39:12;4.53;;;3.60;;
11827;SDS011;5971;49.646;8.568;2022-07-21T11:42:14;5.03;;;3.47;;
11827;SDS011;5971;49.646;8.568;2022-07-21T11:45:16;4.90;;;3.58;;
11827;SDS011;5971;49.646;8.568;2022-07-21T11:48:33;4.50;;;3.28;;
11827;SDS011;5971;49.646;8.568;2022-07-21T11:51:35;6.75;;;3.88;;
11827;SDS011;5971;49.646;8.568;2022-07-21T11:54:37;4.65;;;3.42;;
11827;SDS011;5971;49.646;8.568;2022-07-21T11:57:42;4.88;;;3.55;;
11827;SDS011;5971;49.646;8.568;2022-07-21T12:00:44;5.00;;;3.40;;
11827;SDS011;5971;49.646;8.568;2022-07-21T12:03:48;5.18;;;3.63;;
11827;SDS011;5971;49.646;8.568;2022-07-21T12:06:51;4.63;;;3.13;;
11827;SDS011;5971;49.646;8.568;2022-07-21T12:09:53;4.72;;;3.10;;
11827;SDS011;5971;49.646;8.568;2022-07-21T12:12:59;4.50;;;3.25;;
11827;SDS011;5971;49.646;8.568;2022-07-21T12:16:01;4.82;;;3.28;;
11827;SDS011;5971;49.646;8.568;2022-07-21T12:19:09;4.50;;;3.60;;
11827;SDS011;5971;49.646;8.568;2022-07-21T12:22:11;5.07;;;3.72;;
11827;SDS011;5971;49.646;8.568;2022-07-21T12:25:14;4.75;;;3.67;;
11827;SDS011;5971;49.646;8.568;2022-07-21T12:28:16;4.93;;;3.58;;
11827;SDS011;5971;49.646;8.568;2022-07-21T12:31:18;5.03;;;3.80;;
11827;SDS011;5971;49.646;8.568;2022-07-21T12:34:22;5.35;;;3.78;;
11827;SDS011;5971;49.646;8.568;2022-07-21T12:41:04;5.70;;;3.97;;
11827;SDS011;5971;49.646;8.568;2022-07-21T12:44:26;5.32;;;3.85;;
11827;SDS011;5971;49.646;8.568;2022-07-21T12:47:28;4.78;;;4.05;;
11827;SDS011;5971;49.646;8.568;2022-07-21T12:50:31;4.30;;;3.30;;
11827;SDS011;5971;49.646;8.568;2022-07-21T12:53:33;5.10;;;3.70;;
11827;SDS011;5971;49.646;8.568;2022-07-21T12:56:35;5.32;;;4.03;;
11827;SDS011;5971;49.646;8.568;2022-07-21T12:59:37;6.00;;;3.88;;
11827;SDS011;5971;49.646;8.568;2022-07-21T13:05:49;4.95;;;3.75;;
11827;SDS011;5971;49.646;8.568;2022-07-21T13:08:50;4.47;;;3.42;;
11827;SDS011;5971;49.646;8.568;2022-07-21T13:11:52;5.13;;;3.70;;
11827;SDS011;5971;49.646;8.568;2022-07-21T13:14:54;4.95;;;3.58;;
11827;SDS011;5971;49.646;8.568;2022-07-21T13:17:55;5.28;;;3.55;;
11827;SDS011;5971;49.646;8.568;2022-07-21T13:20:56;5.88;;;3.97;;
11827;SDS011;5971;49.646;8.568;2022-07-21T13:23:58;4.80;;;3.67;;
11827;SDS011;5971;49.646;8.568;2022-07-21T13:26:59;5.75;;;3.63;;
11827;SDS011;5971;49.646;8.568;2022-07-21T13:30:01;6.25;;;4.07;;
11827;SDS011;5971;49.646;8.568;2022-07-21T13:33:03;5.18;;;4.00;;
11827;SDS011;5971;49.646;8.568;2022-07-21T13:36:06;5.15;;;4.00;;
11827;SDS011;5971;49.646;8.568;2022-07-21T13:39:07;5.53;;;4.15;;
11827;SDS011;5971;49.646;8.568;2022-07-21T13:42:29;5.07;;;3.78;;
11827;SDS011;5971;49.646;8.568;2022-07-21T13:45:50;5.05;;;3.78;;
11827;SDS011;5971;49.646;8.568;2022-07-21T13:48:52;5.00;;;3.92;;
11827;SDS011;5971;49.646;8.568;2022-07-21T13:51:53;5.57;;;3.80;;
11827;SDS011;5971;49.646;8.568;2022-07-21T13:54:54;5.78;;;4.18;;
11827;SDS011;5971;49.646;8.568;2022-07-21T13:57:56;5.35;;;3.67;;
11827;SDS011;5971;49.646;8.568;2022-07-21T14:00:57;4.68;;;3.53;;
11827;SDS011;5971;49.646;8.568;2022-07-21T14:03:58;7.45;;;4.25;;
11827;SDS011;5971;49.646;8.568;2022-07-21T14:07:01;5.22;;;3.78;;
11827;SDS011;5971;49.646;8.568;2022-07-21T14:10:03;4.35;;;3.70;;
11827;SDS011;5971;49.646;8.568;2022-07-21T14:13:06;5.35;;;3.97;;
11827;SDS011;5971;49.646;8.568;2022-07-21T14:16:07;5.47;;;4.55;;
11827;SDS011;5971;49.646;8.568;2022-07-21T14:19:09;5.95;;;4.18;;
11827;SDS011;5971;49.646;8.568;2022-07-21T14:22:10;5.40;;;3.92;;
11827;SDS011;5971;49.646;8.568;2022-07-21T14:25:12;5.28;;;3.95;;
11827;SDS011;5971;49.646;8.568;2022-07-21T14:28:20;5.22;;;3.88;;
11827;SDS011;5971;49.646;8.568;2022-07-21T14:31:21;6.18;;;4.13;;
11827;SDS011;5971;49.646;8.568;2022-07-21T14:34:23;6.30;;;3.95;;
11827;SDS011;5971;49.646;8.568;2022-07-21T14:37:24;4.70;;;3.53;;
11827;SDS011;5971;49.646;8.568;2022-07-21T14:40:26;5.70;;;3.92;;
11827;SDS011;5971;49.646;8.568;2022-07-21T14:43:27;4.30;;;3.35;;
11827;SDS011;5971;49.646;8.568;2022-07-21T14:46:29;5.78;;;3.67;;
11827;SDS011;5971;49.646;8.568;2022-07-21T14:49:30;5.53;;;3.72;;
11827;SDS011;5971;49.646;8.568;2022-07-21T14:52:31;5.63;;;4.07;;
11827;SDS011;5971;49.646;8.568;2022-07-21T14:55:33;5.22;;;3.85;;
11827;SDS011;5971;49.646;8.568;2022-07-21T14:58:35;5.25;;;3.70;;
11827;SDS011;5971;49.646;8.568;2022-07-21T15:01:36;4.90;;;3.40;;
11827;SDS011;5971;49.646;8.568;2022-07-21T15:04:37;6.25;;;3.90;;
11827;SDS011;5971;49.646;8.568;2022-07-21T15:07:39;4.72;;;3.95;;
11827;SDS011;5971;49.646;8.568;2022-07-21T15:10:40;5.43;;;3.88;;
11827;SDS011;5971;49.646;8.568;2022-07-21T15:13:42;4.90;;;3.40;;
11827;SDS011;5971;49.646;8.568;2022-07-21T15:16:43;4.95;;;3.47;;
11827;SDS011;5971;49.646;8.568;2022-07-21T15:19:45;5.82;;;3.90;;
11827;SDS011;5971;49.646;8.568;2022-07-21T15:22:47;4.80;;;3.85;;
11827;SDS011;5971;49.646;8.568;2022-07-21T15:25:48;5.15;;;3.67;;
11827;SDS011;5971;49.646;8.568;2022-07-21T15:28:50;5.18;;;3.92;;
11827;SDS011;5971;49.646;8.568;2022-07-21T15:31:51;4.75;;;3.20;;
11827;SDS011;5971;49.646;8.568;2022-07-21T15:34:53;5.47;;;3.50;;
11827;SDS011;5971;49.646;8.568;2022-07-21T15:37:54;6.00;;;3.63;;
11827;SDS011;5971;49.646;8.568;2022-07-21T15:40:55;4.80;;;3.55;;
11827;SDS011;5971;49.646;8.568;2022-07-21T15:43:57;4.40;;;3.10;;
11827;SDS011;5971;49.646;8.568;2022-07-21T15:47:00;5.63;;;3.40;;
11827;SDS011;5971;49.646;8.568;2022-07-21T15:50:02;5.75;;;3.75;;
11827;SDS011;5971;49.646;8.568;2022-07-21T15:53:12;5.38;;;3.42;;
11827;SDS011;5971;49.646;8.568;2022-07-21T15:56:13;6.10;;;3.38;;
11827;SDS011;5971;49.646;8.568;2022-07-21T15:59:15;5.18;;;3.83;;
11827;SDS011;5971;49.646;8.568;2022-07-21T16:02:35;5.22;;;3.50;;
11827;SDS011;5971;49.646;8.568;2022-07-21T16:05:38;5.32;;;3.80;;
11827;SDS011;5971;49.646;8.568;2022-07-21T16:08:39;4.80;;;3.33;;
11827;SDS011;5971;49.646;8.568;2022-07-21T16:11:41;5.00;;;3.60;;
11827;SDS011;5971;49.646;8.568;2022-07-21T16:14:42;5.13;;;3.53;;
11827;SDS011;5971;49.646;8.568;2022-07-21T16:17:44;4.85;;;3.47;;
11827;SDS011;5971;49.646;8.568;2022-07-21T16:20:46;4.78;;;3.55;;
11827;SDS011;5971;49.646;8.568;2022-07-21T16:23:47;4.93;;;3.58;;
11827;SDS011;5971;49.646;8.568;2022-07-21T16:26:49;5.25;;;3.58;;
11827;SDS011;5971;49.646;8.568;2022-07-21T16:29:50;5.35;;;3.42;;
11827;SDS011;5971;49.646;8.568;2022-07-21T16:32:51;5.00;;;3.42;;
11827;SDS011;5971;49.646;8.568;2022-07-21T16:35:53;4.85;;;3.15;;
11827;SDS011;5971;49.646;8.568;2022-07-21T16:38:54;5.25;;;3.72;;
11827;SDS011;5971;49.646;8.568;2022-07-21T16:41:56;4.95;;;3.55;;
11827;SDS011;5971;49.646;8.568;2022-07-21T16:44:57;7.35;;;3.42;;
11827;SDS011;5971;49.646;8.568;2022-07-21T16:47:58;4.90;;;3.15;;
11827;SDS011;5971;49.646;8.568;2022-07-21T16:51:00;5.72;;;3.13;;
11827;SDS011;5971;49.646;8.568;2022-07-21T16:54:01;5.15;;;3.65;;
11827;SDS011;5971;49.646;8.568;2022-07-21T16:57:05;5.30;;;3.55;;
11827;SDS011;5971;49.646;8.568;2022-07-21T17:00:07;4.78;;;3.20;;
11827;SDS011;5971;49.646;8.568;2022-07-21T17:03:14;5.57;;;3.40;;
11827;SDS011;5971;49.646;8.568;2022-07-21T17:06:16;5.30;;;3.38;;
11827;SDS011;5971;49.646;8.568;2022-07-21T17:09:17;5.88;;;3.95;;
11827;SDS011;5971;49.646;8.568;2022-07-21T17:12:19;4.88;;;3.55;;
11827;SDS011;5971;49.646;8.568;2022-07-21T17:15:21;4.35;;;3.13;;
11827;SDS011;5971;49.646;8.568;2022-07-21T17:18:23;4.93;;;3.15;;
11827;SDS011;5971;49.646;8.568;2022-07-21T17:21:24;5.15;;;3.08;;
11827;SDS011;5971;49.646;8.568;2022-07-21T17:24:25;3.95;;;2.72;;
11827;SDS011;5971;49.646;8.568;2022-07-21T17:27:27;5.03;;;3.03;;
11827;SDS011;5971;49.646;8.568;2022-07-21T17:30:28;4.45;;;3.28;;
11827;SDS011;5971;49.646;8.568;2022-07-21T17:33:29;3.97;;;2.58;;
11827;SDS011;5971;49.646;8.568;2022-07-21T17:36:31;4.38;;;2.92;;
11827;SDS011;5971;49.646;8.568;2022-07-21T17:39:32;4.45;;;3.13;;
11827;SDS011;5971;49.646;8.568;2022-07-21T17:42:35;5.22;;;3.33;;
11827;SDS011;5971;49.646;8.568;2022-07-21T17:45:37;4.32;;;2.92;;
11827;SDS011;5971;49.646;8.568;2022-07-21T17:48:38;4.53;;;3.20;;
11827;SDS011;5971;49.646;8.568;2022-07-21T17:51:40;4.85;;;3.45;;
11827;SDS011;5971;49.646;8.568;2022-07-21T17:54:41;6.00;;;3.08;;
11827;SDS011;5971;49.646;8.568;2022-07-21T17:57:42;4.60;;;3.42;;
11827;SDS011;5971;49.646;8.568;2022-07-21T18:01:02;4.50;;;3.03;;
11827;SDS011;5971;49.646;8.568;2022-07-21T18:04:04;4.43;;;3.25;;
11827;SDS011;5971;49.646;8.568;2022-07-21T18:07:06;4.90;;;3.33;;
11827;SDS011;5971;49.646;8.568;2022-07-21T18:10:08;4.50;;;2.70;;
11827;SDS011;5971;49.646;8.568;2022-07-21T18:13:09;5.53;;;3.13;;
11827;SDS011;5971;49.646;8.568;2022-07-21T18:16:12;5.15;;;2.83;;
11827;SDS011;5971;49.646;8.568;2022-07-21T18:19:14;6.35;;;3.30;;
11827;SDS011;5971;49.646;8.568;2022-07-21T18:22:15;4.22;;;3.08;;
11827;SDS011;5971;49.646;8.568;2022-07-21T18:25:17;4.45;;;2.80;;
11827;SDS011;5971;49.646;8.568;2022-07-21T18:28:18;5.68;;;3.13;;
11827;SDS011;5971;49.646;8.568;2022-07-21T18:31:20;5.70;;;3.30;;
11827;SDS011;5971;49.646;8.568;2022-07-21T18:34:21;4.55;;;3.00;;
11827;SDS011;5971;49.646;8.568;2022-07-21T18:37:23;4.40;;;2.78;;
11827;SDS011;5971;49.646;8.568;2022-07-21T18:40:24;5.15;;;3.20;;
11827;SDS011;5971;49.646;8.568;2022-07-21T18:43:25;5.20;;;3.30;;
11827;SDS011;5971;49.646;8.568;2022-07-21T18:46:27;4.53;;;2.95;;
11827;SDS011;5971;49.646;8.568;2022-07-21T18:49:28;4.57;;;3.30;;
11827;SDS011;5971;49.646;8.568;2022-07-21T18:52:30;5.20;;;2.97;;